sensor_id;sensor_type;location;lat;lon;timestamp;pressure;altitude;pressure_sealevel;temperature;humidity
69980;BME280;57318;56.232;43.944;2023-04-02T00:02:30;98946.88;;;4.96;75.95
69980;BME280;57318;56.232;43.944;2023-04-02T00:08:28;98944.78;;;5.01;75.21
69980;BME280;57318;56.232;43.944;2023-04-02T00:11:03;98949.09;;;5.02;75.09
69980;BME280;57318;56.232;43.944;2023-04-02T00:13:35;98954.06;;;5.06;74.97
69980;BME280;57318;56.232;43.944;2023-04-02T00:16:03;98950.47;;;5.07;74.87
69980;BME280;57318;56.232;43.944;2023-04-02T00:18:31;98952.91;;;5.11;74.78
69980;BME280;57318;56.232;43.944;2023-04-02T00:23:35;98948.59;;;5.10;74.37
69980;BME280;57318;56.232;43.944;2023-04-02T00:26:05;98951.03;;;5.13;74.38
69980;BME280;57318;56.232;43.944;2023-04-02T00:28:31;98953.56;;;5.14;74.51
69980;BME280;57318;56.232;43.944;2023-04-02T00:31:00;98950.94;;;5.14;74.29
69980;BME280;57318;56.232;43.944;2023-04-02T00:33:27;98949.34;;;5.12;74.19
69980;BME280;57318;56.232;43.944;2023-04-02T00:35:55;98947.44;;;5.14;74.29
69980;BME280;57318;56.232;43.944;2023-04-02T00:38:27;98950.94;;;5.14;74.19
69980;BME280;57318;56.232;43.944;2023-04-02T00:40:57;98952.72;;;5.14;74.24
69980;BME280;57318;56.232;43.944;2023-04-02T00:43:25;98958.94;;;5.13;73.92
69980;BME280;57318;56.232;43.944;2023-04-02T00:46:00;98961.56;;;5.13;74.03
69980;BME280;57318;56.232;43.944;2023-04-02T00:51:06;98959.13;;;5.10;74.34
69980;BME280;57318;56.232;43.944;2023-04-02T00:53:33;98955.63;;;5.09;74.42
69980;BME280;57318;56.232;43.944;2023-04-02T00:56:00;98960.06;;;5.09;74.63
69980;BME280;57318;56.232;43.944;2023-04-02T00:58:32;98965.34;;;5.09;74.39
69980;BME280;57318;56.232;43.944;2023-04-02T01:00:59;98967.25;;;5.06;74.67
69980;BME280;57318;56.232;43.944;2023-04-02T01:03:34;98969.97;;;5.05;74.80
69980;BME280;57318;56.232;43.944;2023-04-02T01:06:08;98973.44;;;5.05;75.09
69980;BME280;57318;56.232;43.944;2023-04-02T01:16:41;98992.81;;;5.04;75.24
69980;BME280;57318;56.232;43.944;2023-04-02T01:19:43;99000.91;;;5.01;75.42
69980;BME280;57318;56.232;43.944;2023-04-02T01:24:43;98998.38;;;5.00;75.58
69980;BME280;57318;56.232;43.944;2023-04-02T01:27:16;99000.91;;;5.01;75.42
69980;BME280;57318;56.232;43.944;2023-04-02T01:29:50;98997.53;;;4.99;75.76
69980;BME280;57318;56.232;43.944;2023-04-02T01:32:20;99004.50;;;5.00;75.78
69980;BME280;57318;56.232;43.944;2023-04-02T01:34:48;99000.06;;;5.01;75.92
69980;BME280;57318;56.232;43.944;2023-04-02T01:39:52;99005.34;;;5.01;76.51
69980;BME280;57318;56.232;43.944;2023-04-02T01:42:40;99001.88;;;5.00;76.54
69980;BME280;57318;56.232;43.944;2023-04-02T01:45:14;99005.34;;;5.01;76.32
69980;BME280;57318;56.232;43.944;2023-04-02T01:47:41;99007.88;;;5.02;76.69
69980;BME280;57318;56.232;43.944;2023-04-02T01:52:51;99006.25;;;5.00;76.80
69980;BME280;57318;56.232;43.944;2023-04-02T01:55:30;99009.97;;;4.97;76.75
69980;BME280;57318;56.232;43.944;2023-04-02T01:57:57;99014.28;;;4.98;76.70
69980;BME280;57318;56.232;43.944;2023-04-02T02:00:25;99009.88;;;4.99;77.10
69980;BME280;57318;56.232;43.944;2023-04-02T02:02:52;99008.25;;;4.96;77.10
69980;BME280;57318;56.232;43.944;2023-04-02T02:05:20;99015.31;;;4.96;77.12
69980;BME280;57318;56.232;43.944;2023-04-02T02:07:50;99009.31;;;4.94;77.40
69980;BME280;57318;56.232;43.944;2023-04-02T02:10:22;99018.16;;;4.93;77.36
69980;BME280;57318;56.232;43.944;2023-04-02T02:12:50;99016.25;;;4.95;77.31
69980;BME280;57318;56.232;43.944;2023-04-02T02:15:19;99008.25;;;4.96;77.36
69980;BME280;57318;56.232;43.944;2023-04-02T02:17:47;99024.06;;;4.96;77.47
69980;BME280;57318;56.232;43.944;2023-04-02T02:20:13;99017.22;;;4.94;77.42
69980;BME280;57318;56.232;43.944;2023-04-02T02:22:43;99022.38;;;4.95;77.30
69980;BME280;57318;56.232;43.944;2023-04-02T02:25:16;99007.53;;;4.94;77.47
69980;BME280;57318;56.232;43.944;2023-04-02T02:30:21;99019.84;;;4.94;77.57
69980;BME280;57318;56.232;43.944;2023-04-02T02:33:06;99032.25;;;4.92;77.68
69980;BME280;57318;56.232;43.944;2023-04-02T02:39:42;99035.84;;;4.91;77.79
69980;BME280;57318;56.232;43.944;2023-04-02T02:42:14;99032.34;;;4.90;77.75
69980;BME280;57318;56.232;43.944;2023-04-02T02:44:46;99036.78;;;4.90;77.58
69980;BME280;57318;56.232;43.944;2023-04-02T02:47:18;99038.66;;;4.87;77.86
69980;BME280;57318;56.232;43.944;2023-04-02T02:49:50;99032.63;;;4.85;77.90
69980;BME280;57318;56.232;43.944;2023-04-02T02:52:22;99049.09;;;4.89;77.74
69980;BME280;57318;56.232;43.944;2023-04-02T02:55:04;99045.69;;;4.87;77.82
69980;BME280;57318;56.232;43.944;2023-04-02T02:57:32;99055.28;;;4.88;78.00
69980;BME280;57318;56.232;43.944;2023-04-02T03:00:01;99058.66;;;4.90;77.81
69980;BME280;57318;56.232;43.944;2023-04-02T03:02:35;99057.84;;;4.90;77.79
69980;BME280;57318;56.232;43.944;2023-04-02T03:05:02;99058.66;;;4.90;77.70
69980;BME280;57318;56.232;43.944;2023-04-02T03:07:30;99058.56;;;4.92;77.85
69980;BME280;57318;56.232;43.944;2023-04-02T03:15:39;99062.16;;;4.91;77.74
69980;BME280;57318;56.232;43.944;2023-04-02T03:18:10;99066.56;;;4.90;77.88
69980;BME280;57318;56.232;43.944;2023-04-02T03:21:43;99061.31;;;4.90;77.89
69980;BME280;57318;56.232;43.944;2023-04-02T03:23:45;99060.47;;;4.90;77.84
69980;BME280;57318;56.232;43.944;2023-04-02T03:26:43;99061.88;;;4.95;77.73
69980;BME280;57318;56.232;43.944;2023-04-02T03:29:32;99062.44;;;5.00;77.60
69980;BME280;57318;56.232;43.944;2023-04-02T03:32:13;99062.13;;;5.05;77.53
69980;BME280;57318;56.232;43.944;2023-04-02T03:34:45;99072.19;;;5.13;77.25
69980;BME280;57318;56.232;43.944;2023-04-02T03:37:43;99067.66;;;5.15;77.26
69980;BME280;57318;56.232;43.944;2023-04-02T03:40:27;99076.28;;;5.17;77.20
69980;BME280;57318;56.232;43.944;2023-04-02T03:43:01;99078.75;;;5.20;76.59
69980;BME280;57318;56.232;43.944;2023-04-02T03:45:40;99074.97;;;5.24;76.37
69980;BME280;57318;56.232;43.944;2023-04-02T03:48:47;99087.84;;;5.29;76.36
69980;BME280;57318;56.232;43.944;2023-04-02T03:51:12;99076.25;;;5.31;76.06
69980;BME280;57318;56.232;43.944;2023-04-02T03:53:43;99076.06;;;5.34;76.16
69980;BME280;57318;56.232;43.944;2023-04-02T03:56:09;99075.88;;;5.37;76.02
69980;BME280;57318;56.232;43.944;2023-04-02T03:58:45;99084.84;;;5.35;75.63
69980;BME280;57318;56.232;43.944;2023-04-02T04:01:26;99084.53;;;5.39;75.71
69980;BME280;57318;56.232;43.944;2023-04-02T04:03:56;99081.72;;;5.42;75.88
69980;BME280;57318;56.232;43.944;2023-04-02T04:06:29;99088.53;;;5.45;75.50
69980;BME280;57318;56.232;43.944;2023-04-02T04:09:15;99098.88;;;5.48;75.54
69980;BME280;57318;56.232;43.944;2023-04-02T04:11:49;99096.56;;;5.43;75.42
69980;BME280;57318;56.232;43.944;2023-04-02T04:14:36;99092.78;;;5.48;75.69
69980;BME280;57318;56.232;43.944;2023-04-02T04:22:23;99088.59;;;5.58;75.40
69980;BME280;57318;56.232;43.944;2023-04-02T04:24:56;99087.66;;;5.59;75.11
69980;BME280;57318;56.232;43.944;2023-04-02T04:27:38;99100.84;;;5.59;75.17
69980;BME280;57318;56.232;43.944;2023-04-02T04:33:01;99102.97;;;5.67;74.98
69980;BME280;57318;56.232;43.944;2023-04-02T04:38:03;99101.75;;;5.72;74.88
69980;BME280;57318;56.232;43.944;2023-04-02T04:40:36;99101.34;;;5.78;75.01
69980;BME280;57318;56.232;43.944;2023-04-02T04:43:12;99096.41;;;5.87;74.63
69980;BME280;57318;56.232;43.944;2023-04-02T04:46:01;99099.66;;;5.90;74.17
69980;BME280;57318;56.232;43.944;2023-04-02T04:48:40;99098.44;;;5.96;73.93
69980;BME280;57318;56.232;43.944;2023-04-02T04:51:18;99108.59;;;6.02;73.95
69980;BME280;57318;56.232;43.944;2023-04-02T04:53:47;99115.34;;;6.06;73.88
69980;BME280;57318;56.232;43.944;2023-04-02T04:56:16;99109.88;;;6.09;73.90
69980;BME280;57318;56.232;43.944;2023-04-02T04:58:49;99111.88;;;6.06;73.60
69980;BME280;57318;56.232;43.944;2023-04-02T05:01:26;99123.16;;;6.08;73.93
69980;BME280;57318;56.232;43.944;2023-04-02T05:04:04;99124.97;;;6.07;73.76
69980;BME280;57318;56.232;43.944;2023-04-02T05:07:17;99137.31;;;6.07;73.67
69980;BME280;57318;56.232;43.944;2023-04-02T05:09:39;99134.97;;;6.02;73.79
69980;BME280;57318;56.232;43.944;2023-04-02T05:20:31;99137.75;;;6.13;73.62
69980;BME280;57318;56.232;43.944;2023-04-02T05:25:59;99131.75;;;6.24;73.38
69980;BME280;57318;56.232;43.944;2023-04-02T05:28:42;99133.31;;;6.27;72.95
69980;BME280;57318;56.232;43.944;2023-04-02T05:31:15;99143.88;;;6.27;73.00
69980;BME280;57318;56.232;43.944;2023-04-02T05:33:46;99138.69;;;6.25;73.00
69980;BME280;57318;56.232;43.944;2023-04-02T05:36:25;99142.09;;;6.27;73.17
69980;BME280;57318;56.232;43.944;2023-04-02T05:38:53;99137.66;;;6.28;73.21
69980;BME280;57318;56.232;43.944;2023-04-02T05:41:29;99150.66;;;6.31;73.12
69980;BME280;57318;56.232;43.944;2023-04-02T05:46:30;99150.13;;;6.26;73.15
69980;BME280;57318;56.232;43.944;2023-04-02T05:48:58;99146.63;;;6.25;73.00
69980;BME280;57318;56.232;43.944;2023-04-02T05:51:45;99147.19;;;6.30;73.15
69980;BME280;57318;56.232;43.944;2023-04-02T05:54:27;99161.00;;;6.34;72.87
69980;BME280;57318;56.232;43.944;2023-04-02T05:57:06;99153.81;;;6.36;72.83
69980;BME280;57318;56.232;43.944;2023-04-02T05:59:48;99155.41;;;6.39;72.65
69980;BME280;57318;56.232;43.944;2023-04-02T06:02:46;99158.47;;;6.45;72.79
69980;BME280;57318;56.232;43.944;2023-04-02T06:05:23;99163.78;;;6.58;72.33
69980;BME280;57318;56.232;43.944;2023-04-02T06:08:04;99166.72;;;6.54;71.86
69980;BME280;57318;56.232;43.944;2023-04-02T06:10:45;99167.69;;;6.53;71.92
69980;BME280;57318;56.232;43.944;2023-04-02T06:13:15;99172.31;;;6.49;72.19
69980;BME280;57318;56.232;43.944;2023-04-02T06:15:42;99177.28;;;6.54;72.13
69980;BME280;57318;56.232;43.944;2023-04-02T06:20:41;99181.31;;;6.59;71.97
69980;BME280;57318;56.232;43.944;2023-04-02T06:28:46;99174.63;;;6.54;71.94
69980;BME280;57318;56.232;43.944;2023-04-02T06:31:37;99173.59;;;6.43;71.96
69980;BME280;57318;56.232;43.944;2023-04-02T06:34:05;99189.72;;;6.39;72.23
69980;BME280;57318;56.232;43.944;2023-04-02T06:36:32;99196.47;;;6.43;72.30
69980;BME280;57318;56.232;43.944;2023-04-02T06:39:03;99193.41;;;6.36;72.04
69980;BME280;57318;56.232;43.944;2023-04-02T06:41:29;99190.75;;;6.36;72.18
69980;BME280;57318;56.232;43.944;2023-04-02T06:46:42;99189.94;;;6.48;71.71
69980;BME280;57318;56.232;43.944;2023-04-02T06:51:45;99198.81;;;6.47;71.52
69980;BME280;57318;56.232;43.944;2023-04-02T06:54:15;99194.63;;;6.58;71.38
69980;BME280;57318;56.232;43.944;2023-04-02T06:56:44;99204.13;;;6.60;71.02
69980;BME280;57318;56.232;43.944;2023-04-02T06:59:11;99196.31;;;6.59;70.87
69980;BME280;57318;56.232;43.944;2023-04-02T07:01:59;99196.44;;;6.70;70.64
69980;BME280;57318;56.232;43.944;2023-04-02T07:04:28;99213.00;;;6.72;70.53
69980;BME280;57318;56.232;43.944;2023-04-02T07:06:54;99207.19;;;6.67;70.12
69980;BME280;57318;56.232;43.944;2023-04-02T07:09:20;99208.34;;;6.76;70.04
69980;BME280;57318;56.232;43.944;2023-04-02T07:11:46;99209.75;;;6.81;69.80
69980;BME280;57318;56.232;43.944;2023-04-02T07:14:12;99209.63;;;6.83;69.86
69980;BME280;57318;56.232;43.944;2023-04-02T07:16:38;99215.97;;;6.80;69.63
69980;BME280;57318;56.232;43.944;2023-04-02T07:19:06;99213.78;;;6.87;69.67
69980;BME280;57318;56.232;43.944;2023-04-02T07:21:32;99202.88;;;6.92;69.03
69980;BME280;57318;56.232;43.944;2023-04-02T07:23:57;99203.09;;;7.01;69.00
69980;BME280;57318;56.232;43.944;2023-04-02T07:26:25;99211.00;;;7.14;68.70
69980;BME280;57318;56.232;43.944;2023-04-02T07:28:53;99212.16;;;7.23;67.80
69980;BME280;57318;56.232;43.944;2023-04-02T07:31:22;99202.94;;;7.41;67.47
69980;BME280;57318;56.232;43.944;2023-04-02T07:33:52;99203.22;;;7.63;66.69
69980;BME280;57318;56.232;43.944;2023-04-02T07:36:21;99206.94;;;7.84;65.97
69980;BME280;57318;56.232;43.944;2023-04-02T07:38:47;99203.19;;;8.00;65.11
69980;BME280;57318;56.232;43.944;2023-04-02T07:41:13;99208.34;;;8.01;64.69
69980;BME280;57318;56.232;43.944;2023-04-02T07:43:40;99217.06;;;7.90;65.04
69980;BME280;57318;56.232;43.944;2023-04-02T07:46:07;99211.50;;;7.82;65.51
69980;BME280;57318;56.232;43.944;2023-04-02T07:48:33;99203.63;;;7.93;65.30
69980;BME280;57318;56.232;43.944;2023-04-02T07:50:58;99213.47;;;7.91;65.57
69980;BME280;57318;56.232;43.944;2023-04-02T07:53:32;99215.34;;;8.02;65.44
69980;BME280;57318;56.232;43.944;2023-04-02T07:56:00;99221.31;;;8.17;64.83
69980;BME280;57318;56.232;43.944;2023-04-02T07:58:29;99225.03;;;8.39;64.29
69980;BME280;57318;56.232;43.944;2023-04-02T08:00:55;99222.16;;;8.42;63.58
69980;BME280;57318;56.232;43.944;2023-04-02T08:03:21;99222.38;;;8.39;63.94
69980;BME280;57318;56.232;43.944;2023-04-02T08:05:52;99222.56;;;8.48;63.74
69980;BME280;57318;56.232;43.944;2023-04-02T08:08:19;99227.38;;;8.55;63.65
69980;BME280;57318;56.232;43.944;2023-04-02T08:10:45;99229.44;;;8.51;63.47
69980;BME280;57318;56.232;43.944;2023-04-02T08:13:12;99232.56;;;8.32;63.68
69980;BME280;57318;56.232;43.944;2023-04-02T08:15:38;99234.31;;;8.20;64.09
69980;BME280;57318;56.232;43.944;2023-04-02T08:18:03;99233.38;;;7.97;64.23
69980;BME280;57318;56.232;43.944;2023-04-02T08:20:29;99236.78;;;7.86;64.72
69980;BME280;57318;56.232;43.944;2023-04-02T08:22:55;99235.31;;;7.82;65.29
69980;BME280;57318;56.232;43.944;2023-04-02T08:25:22;99240.81;;;7.79;65.25
69980;BME280;57318;56.232;43.944;2023-04-02T08:27:49;99240.38;;;7.85;65.29
69980;BME280;57318;56.232;43.944;2023-04-02T08:30:15;99236.03;;;7.84;65.30
69980;BME280;57318;56.232;43.944;2023-04-02T08:32:41;99239.13;;;7.78;65.55
69980;BME280;57318;56.232;43.944;2023-04-02T08:35:08;99235.31;;;7.82;65.88
69980;BME280;57318;56.232;43.944;2023-04-02T08:37:35;99247.31;;;7.75;65.51
69980;BME280;57318;56.232;43.944;2023-04-02T08:40:01;99245.81;;;7.71;65.90
69980;BME280;57318;56.232;43.944;2023-04-02T08:42:45;99251.63;;;7.76;65.97
69980;BME280;57318;56.232;43.944;2023-04-02T08:45:24;99241.16;;;7.74;66.01
69980;BME280;57318;56.232;43.944;2023-04-02T08:47:58;99243.47;;;7.79;66.14
69980;BME280;57318;56.232;43.944;2023-04-02T08:50:37;99251.22;;;7.69;66.43
69980;BME280;57318;56.232;43.944;2023-04-02T08:53:06;99254.91;;;7.67;66.64
69980;BME280;57318;56.232;43.944;2023-04-02T08:55:36;99267.31;;;7.53;66.92
69980;BME280;57318;56.232;43.944;2023-04-02T09:00:46;99249.69;;;7.28;68.10
69980;BME280;57318;56.232;43.944;2023-04-02T09:05:58;99252.97;;;7.19;68.20
69980;BME280;57318;56.232;43.944;2023-04-02T09:08:26;99253.59;;;7.10;68.36
69980;BME280;57318;56.232;43.944;2023-04-02T09:13:26;99254.84;;;7.04;69.06
69980;BME280;57318;56.232;43.944;2023-04-02T09:15:57;99255.41;;;7.09;69.08
69980;BME280;57318;56.232;43.944;2023-04-02T09:18:27;99248.09;;;7.13;69.07
69980;BME280;57318;56.232;43.944;2023-04-02T09:20:54;99253.06;;;7.17;68.45
69980;BME280;57318;56.232;43.944;2023-04-02T09:23:22;99244.72;;;7.23;68.32
69980;BME280;57318;56.232;43.944;2023-04-02T09:25:51;99244.72;;;7.23;68.23
69980;BME280;57318;56.232;43.944;2023-04-02T09:28:18;99243.84;;;7.23;68.06
69980;BME280;57318;56.232;43.944;2023-04-02T09:31:11;99246.94;;;7.43;67.42
69980;BME280;57318;56.232;43.944;2023-04-02T09:33:47;99245.97;;;7.56;66.90
69980;BME280;57318;56.232;43.944;2023-04-02T09:39:16;99250.31;;;7.94;65.42
69980;BME280;57318;56.232;43.944;2023-04-02T09:41:42;99252.06;;;8.07;65.01
69980;BME280;57318;56.232;43.944;2023-04-02T09:47:02;99250.88;;;8.35;64.30
69980;BME280;57318;56.232;43.944;2023-04-02T09:49:31;99251.56;;;8.50;63.82
69980;BME280;57318;56.232;43.944;2023-04-02T09:52:25;99257.28;;;8.57;62.80
69980;BME280;57318;56.232;43.944;2023-04-02T09:57:45;99248.53;;;8.43;63.03
69980;BME280;57318;56.232;43.944;2023-04-02T10:00:19;99243.66;;;8.37;62.83
69980;BME280;57318;56.232;43.944;2023-04-02T10:06:14;99254.09;;;8.27;63.51
69980;BME280;57318;56.232;43.944;2023-04-02T10:08:42;99252.91;;;8.31;63.30
69980;BME280;57318;56.232;43.944;2023-04-02T10:11:14;99260.72;;;8.33;63.27
69980;BME280;57318;56.232;43.944;2023-04-02T10:13:54;99256.84;;;8.26;63.45
69980;BME280;57318;56.232;43.944;2023-04-02T10:16:26;99260.03;;;8.42;63.28
69980;BME280;57318;56.232;43.944;2023-04-02T10:21:40;99251.97;;;9.15;61.25
69980;BME280;57318;56.232;43.944;2023-04-02T10:24:15;99259.84;;;9.39;60.09
69980;BME280;57318;56.232;43.944;2023-04-02T10:27:06;99268.63;;;9.39;59.43
69980;BME280;57318;56.232;43.944;2023-04-02T10:51:58;99266.53;;;8.98;60.96
69980;BME280;57318;56.232;43.944;2023-04-02T10:54:45;99267.41;;;9.21;60.34
69980;BME280;57318;56.232;43.944;2023-04-02T10:57:40;99263.56;;;9.48;59.00
69980;BME280;57318;56.232;43.944;2023-04-02T11:05:25;99271.16;;;9.52;58.57
69980;BME280;57318;56.232;43.944;2023-04-02T11:08:01;99264.63;;;9.23;59.51
69980;BME280;57318;56.232;43.944;2023-04-02T11:10:32;99271.28;;;9.17;60.08
69980;BME280;57318;56.232;43.944;2023-04-02T11:15:48;99268.09;;;9.00;60.24
69980;BME280;57318;56.232;43.944;2023-04-02T11:18:21;99266.94;;;9.16;60.03
69980;BME280;57318;56.232;43.944;2023-04-02T11:23:19;99270.69;;;9.36;59.55
69980;BME280;57318;56.232;43.944;2023-04-02T11:25:46;99276.59;;;9.28;59.42
69980;BME280;57318;56.232;43.944;2023-04-02T11:28:32;99276.00;;;9.36;59.64
69980;BME280;57318;56.232;43.944;2023-04-02T11:30:58;99276.84;;;9.36;59.31
69980;BME280;57318;56.232;43.944;2023-04-02T11:35:56;99285.25;;;9.19;59.05
69980;BME280;57318;56.232;43.944;2023-04-02T11:40:54;99286.41;;;8.92;60.00
69980;BME280;57318;56.232;43.944;2023-04-02T11:46:01;99278.03;;;8.74;60.66
69980;BME280;57318;56.232;43.944;2023-04-02T11:48:27;99278.72;;;8.65;60.94
69980;BME280;57318;56.232;43.944;2023-04-02T11:50:53;99281.00;;;8.58;61.30
69980;BME280;57318;56.232;43.944;2023-04-02T11:53:29;99273.78;;;8.60;61.38
69980;BME280;57318;56.232;43.944;2023-04-02T12:09:44;99291.25;;;8.26;62.54
69980;BME280;57318;56.232;43.944;2023-04-02T12:15:38;99293.53;;;8.19;62.75
69980;BME280;57318;56.232;43.944;2023-04-02T12:20:39;99294.06;;;8.11;63.20
69980;BME280;57318;56.232;43.944;2023-04-02T12:23:05;99288.66;;;8.13;63.48
69980;BME280;57318;56.232;43.944;2023-04-02T12:25:36;99290.06;;;8.06;63.47
69980;BME280;57318;56.232;43.944;2023-04-02T12:28:14;99290.94;;;7.93;63.82
69980;BME280;57318;56.232;43.944;2023-04-02T12:30:45;99295.00;;;7.86;64.16
69980;BME280;57318;56.232;43.944;2023-04-02T12:35:48;99300.06;;;7.76;64.55
69980;BME280;57318;56.232;43.944;2023-04-02T12:38:30;99293.09;;;7.75;64.79
69980;BME280;57318;56.232;43.944;2023-04-02T12:41:03;99282.41;;;7.77;64.87
69980;BME280;57318;56.232;43.944;2023-04-02T12:43:34;99292.13;;;7.76;64.58
69980;BME280;57318;56.232;43.944;2023-04-02T12:46:04;99284.09;;;7.78;64.77
69980;BME280;57318;56.232;43.944;2023-04-02T12:48:31;99282.94;;;7.82;64.50
69980;BME280;57318;56.232;43.944;2023-04-02T12:50:58;99288.00;;;7.85;64.34
69980;BME280;57318;56.232;43.944;2023-04-02T12:53:28;99290.63;;;7.85;64.25
69980;BME280;57318;56.232;43.944;2023-04-02T12:55:55;99290.53;;;7.87;64.01
69980;BME280;57318;56.232;43.944;2023-04-02T12:58:31;99289.69;;;7.86;64.01
69980;BME280;57318;56.232;43.944;2023-04-02T13:01:18;99291.81;;;7.81;64.27
69980;BME280;57318;56.232;43.944;2023-04-02T13:04:04;99294.34;;;7.83;64.27
69980;BME280;57318;56.232;43.944;2023-04-02T13:06:31;99290.25;;;7.79;64.14
69980;BME280;57318;56.232;43.944;2023-04-02T13:08:59;99296.59;;;7.76;64.39
69980;BME280;57318;56.232;43.944;2023-04-02T13:11:39;99295.22;;;7.70;64.25
69980;BME280;57318;56.232;43.944;2023-04-02T13:14:16;99295.00;;;7.61;64.72
69980;BME280;57318;56.232;43.944;2023-04-02T13:16:42;99295.00;;;7.61;64.63
69980;BME280;57318;56.232;43.944;2023-04-02T13:21:47;99290.81;;;7.58;65.01
69980;BME280;57318;56.232;43.944;2023-04-02T13:24:24;99296.72;;;7.62;64.85
69980;BME280;57318;56.232;43.944;2023-04-02T13:26:54;99289.50;;;7.64;64.85
69980;BME280;57318;56.232;43.944;2023-04-02T13:29:26;99293.22;;;7.61;64.39
69980;BME280;57318;56.232;43.944;2023-04-02T13:31:55;99298.63;;;7.59;64.66
69980;BME280;57318;56.232;43.944;2023-04-02T13:34:21;99293.34;;;7.59;64.73
69980;BME280;57318;56.232;43.944;2023-04-02T13:36:47;99291.31;;;7.63;64.83
69980;BME280;57318;56.232;43.944;2023-04-02T13:39:13;99287.50;;;7.67;64.76
69980;BME280;57318;56.232;43.944;2023-04-02T13:41:41;99291.63;;;7.71;64.61
69980;BME280;57318;56.232;43.944;2023-04-02T13:44:21;99280.72;;;7.76;64.48
69980;BME280;57318;56.232;43.944;2023-04-02T13:46:47;99280.06;;;7.85;64.28
69980;BME280;57318;56.232;43.944;2023-04-02T13:49:13;99271.03;;;8.01;64.08
69980;BME280;57318;56.232;43.944;2023-04-02T13:51:50;99270.53;;;8.20;63.56
69980;BME280;57318;56.232;43.944;2023-04-02T13:54:29;99268.84;;;8.43;62.82
69980;BME280;57318;56.232;43.944;2023-04-02T13:56:58;99269.16;;;8.51;62.39
69980;BME280;57318;56.232;43.944;2023-04-02T13:59:25;99268.69;;;8.57;62.27
69980;BME280;57318;56.232;43.944;2023-04-02T14:02:16;99267.22;;;8.53;62.01
69980;BME280;57318;56.232;43.944;2023-04-02T14:04:44;99267.91;;;8.44;61.95
69980;BME280;57318;56.232;43.944;2023-04-02T14:24:02;99276.53;;;7.98;63.65
69980;BME280;57318;56.232;43.944;2023-04-02T14:37:20;99279.03;;;8.96;60.91
69980;BME280;57318;56.232;43.944;2023-04-02T14:42:46;99264.84;;;8.61;61.30
69980;BME280;57318;56.232;43.944;2023-04-02T14:50:47;99268.97;;;8.41;61.82
69980;BME280;57318;56.232;43.944;2023-04-02T14:53:26;99270.69;;;8.29;62.16
69980;BME280;57318;56.232;43.944;2023-04-02T14:55:55;99264.97;;;8.11;62.52
69980;BME280;57318;56.232;43.944;2023-04-02T14:58:32;99265.44;;;7.92;62.46
69980;BME280;57318;56.232;43.944;2023-04-02T15:03:44;99282.97;;;7.56;63.83
69980;BME280;57318;56.232;43.944;2023-04-02T15:06:19;99273.69;;;7.38;64.30
69980;BME280;57318;56.232;43.944;2023-04-02T15:08:51;99269.44;;;7.22;64.90
69980;BME280;57318;56.232;43.944;2023-04-02T15:13:56;99272.41;;;6.92;66.01
69980;BME280;57318;56.232;43.944;2023-04-02T15:16:24;99272.59;;;6.76;66.45
69980;BME280;57318;56.232;43.944;2023-04-02T15:18:58;99268.31;;;6.61;67.08
69980;BME280;57318;56.232;43.944;2023-04-02T15:43:19;99279.03;;;5.62;71.21
69980;BME280;57318;56.232;43.944;2023-04-02T15:45:50;99282.06;;;5.55;71.77
69980;BME280;57318;56.232;43.944;2023-04-02T16:02:38;99269.34;;;5.19;73.91
69980;BME280;57318;56.232;43.944;2023-04-02T16:05:19;99277.72;;;5.11;73.90
69980;BME280;57318;56.232;43.944;2023-04-02T16:10:23;99284.81;;;4.95;74.45
69980;BME280;57318;56.232;43.944;2023-04-02T16:12:55;99279.25;;;4.85;74.88
69980;BME280;57318;56.232;43.944;2023-04-02T16:15:33;99276.06;;;4.80;75.21
69980;BME280;57318;56.232;43.944;2023-04-02T16:18:14;99277.25;;;4.74;75.31
69980;BME280;57318;56.232;43.944;2023-04-02T16:24:49;99281.47;;;4.62;76.48
69980;BME280;57318;56.232;43.944;2023-04-02T16:27:44;99271.88;;;4.61;76.32
69980;BME280;57318;56.232;43.944;2023-04-02T16:30:41;99276.38;;;4.59;76.75
69980;BME280;57318;56.232;43.944;2023-04-02T16:36:21;99286.66;;;4.48;76.59
69980;BME280;57318;56.232;43.944;2023-04-02T16:42:10;99282.03;;;4.37;77.39
69980;BME280;57318;56.232;43.944;2023-04-02T16:47:19;99290.53;;;4.26;77.59
69980;BME280;57318;56.232;43.944;2023-04-02T16:50:06;99284.66;;;4.21;77.40
69980;BME280;57318;56.232;43.944;2023-04-02T16:55:29;99281.44;;;4.16;78.63
69980;BME280;57318;56.232;43.944;2023-04-02T17:00:39;99294.34;;;4.21;78.69
69980;BME280;57318;56.232;43.944;2023-04-02T17:11:24;99279.06;;;4.27;79.03
69980;BME280;57318;56.232;43.944;2023-04-02T17:14:03;99281.69;;;4.27;78.92
69980;BME280;57318;56.232;43.944;2023-04-02T17:16:41;99272.13;;;4.26;78.89
69980;BME280;57318;56.232;43.944;2023-04-02T17:19:13;99275.66;;;4.25;79.02
69980;BME280;57318;56.232;43.944;2023-04-02T17:21:42;99277.47;;;4.25;79.28
69980;BME280;57318;56.232;43.944;2023-04-02T17:24:23;99270.41;;;4.25;79.09
69980;BME280;57318;56.232;43.944;2023-04-02T17:26:59;99271.41;;;4.23;79.20
69980;BME280;57318;56.232;43.944;2023-04-02T17:29:39;99275.00;;;4.22;79.10
69980;BME280;57318;56.232;43.944;2023-04-02T17:32:15;99273.38;;;4.19;79.16
69980;BME280;57318;56.232;43.944;2023-04-02T17:34:46;99286.53;;;4.19;79.36
69980;BME280;57318;56.232;43.944;2023-04-02T17:43:38;99280.94;;;4.25;79.47
69980;BME280;57318;56.232;43.944;2023-04-02T17:45:55;99282.63;;;4.26;79.31
69980;BME280;57318;56.232;43.944;2023-04-02T17:51:08;99280.00;;;4.26;79.54
69980;BME280;57318;56.232;43.944;2023-04-02T17:56:28;99275.66;;;4.25;79.02
69980;BME280;57318;56.232;43.944;2023-04-02T17:59:15;99279.31;;;4.23;79.27
69980;BME280;57318;56.232;43.944;2023-04-02T18:07:06;99276.69;;;4.23;79.70
69980;BME280;57318;56.232;43.944;2023-04-02T18:12:56;99268.53;;;4.27;79.52
69980;BME280;57318;56.232;43.944;2023-04-02T18:15:42;99272.13;;;4.26;79.63
69980;BME280;57318;56.232;43.944;2023-04-02T18:32:51;99267.53;;;4.14;80.14
69980;BME280;57318;56.232;43.944;2023-04-02T18:35:24;99269.41;;;4.12;80.20